Airfield :
LOGIN :

Register | Disclaimer

   EN    FR    IT 

 










Legend :    VFR   Marginal VFR   IFR   Intensive IFR   Very Intensive IFR
Visi :
Ceiling :
>= 8 km
>= 3000ft
5 to 8 km
1000 to 3000 ft
1500m to 5 km
500 to 1000 ft
800 to 1500m
200 to 500 ft
< 800m
< 200 ft
Symbols :   Thunderstorms  Fog  Heavy snow  Heavy precipitations  Wind > 20 kt
SIGMETs :     Misc.  Thunderstorms  Icing  Turbulence  Mountain Waves  Volcanic Ashes






- Airport Elevation : 197 ft
- IATA code : XOG


LFMO - Orange

CURRENT METAR :
  • 032330Z AUTO 33016KT CAVOK 19/10 Q1013 TEMPO 35015G25KT

EXPIRED METARs :
  • 032300Z AUTO 34014KT CAVOK 19/10 Q1013 TEMPO 35015G25KT
  • 032230Z AUTO 34014KT CAVOK 19/10 Q1013 TEMPO 35015G25KT
  • 032200Z AUTO 34017KT CAVOK 19/10 Q1012 TEMPO 35015G25KT
  • 032130Z AUTO 35018KT CAVOK 19/10 Q1012 TEMPO 35015G25KT
  • 032100Z AUTO 34016KT CAVOK 20/10 Q1012 TEMPO 35015G25KT

TAF TAF LFMO
Valid from the 03 at 21:00 until the 04 at 21:00 UTC


032000Z 0321/0421 35015KT CAVOK
TEMPO 0321/0405 35015G25KT
BECMG 0405/0407 35020G30KT
TEMPO 0409/0421 35020G40KT



MET'MAP, your aeronautical weather chart ! - Copyright ORBIFLY December 2007 - Disclaimer

ORBIFLY MET'MAP TEAM :

Programming & Development : Alexandra Zaïnal
Concept & original design : Baudouin d'Aumeries
Assistance for programming : Marc-Olivier Méhu
Technical & hardware support : Manuel Goepfert

Contact : metmap@orbifly.com




SOURCES & CREDITS :

   NOAA